createdAt,value
2023-01-30T00:00:39.635Z,-1.84
2023-01-30T00:03:48.039Z,-1.89
2023-01-30T00:06:56.591Z,-1.92
2023-01-30T00:10:11.017Z,-1.97
2023-01-30T00:13:25.973Z,-2.02
2023-01-30T00:16:34.660Z,-2.05
2023-01-30T00:19:43.023Z,-2.03
2023-01-30T00:23:00.377Z,-2.06
2023-01-30T00:26:17.026Z,-2.07
2023-01-30T00:29:25.879Z,-2.07
2023-01-30T00:32:40.998Z,-2.18
2023-01-30T00:36:04.003Z,-2.24
2023-01-30T00:39:19.984Z,-2.11
2023-01-30T00:42:27.995Z,-2.19
2023-01-30T00:45:45.115Z,-2.18
2023-01-30T00:48:53.856Z,-2.17
2023-01-30T00:52:01.982Z,-2.20
2023-01-30T00:55:17.258Z,-2.26
2023-01-30T00:58:26.294Z,-2.24
2023-01-30T01:01:35.040Z,-2.30
2023-01-30T01:04:49.991Z,-2.31
2023-01-30T01:07:51.882Z,-2.33
2023-01-30T01:11:06.969Z,-2.34
2023-01-30T01:14:15.994Z,-2.35
2023-01-30T01:17:30.975Z,-2.41
2023-01-30T01:20:38.969Z,-2.41
2023-01-30T01:23:58.009Z,-2.39
2023-01-30T01:27:12.981Z,-2.46
2023-01-30T01:30:27.988Z,-2.54
2023-01-30T01:33:43.019Z,-2.43
2023-01-30T01:36:54.314Z,-2.47
2023-01-30T01:40:09.001Z,-2.33
2023-01-30T01:43:30.010Z,-2.31
2023-01-30T01:46:55.513Z,-2.34
2023-01-30T01:50:11.980Z,-2.29
2023-01-30T01:53:19.070Z,-2.34
2023-01-30T01:56:35.014Z,-2.37
2023-01-30T01:59:50.148Z,-2.42
2023-01-30T02:03:07.962Z,-2.42
2023-01-30T02:06:24.976Z,-2.49
2023-01-30T02:09:33.677Z,-2.55
2023-01-30T02:12:42.007Z,-2.55
2023-01-30T02:15:51.514Z,-2.55
2023-01-30T02:19:00.043Z,-2.56
2023-01-30T02:22:39.966Z,-2.61
2023-01-30T02:26:06.543Z,-2.46
2023-01-30T02:29:23.970Z,-2.42
2023-01-30T02:32:50.851Z,-2.43
2023-01-30T02:36:42.962Z,-2.47
2023-01-30T02:40:00.630Z,-2.49
2023-01-30T02:43:25.985Z,-2.51
2023-01-30T02:46:48.091Z,-2.54
2023-01-30T02:50:10.981Z,-2.52
2023-01-30T02:53:25.977Z,-2.57
2023-01-30T02:56:55.965Z,-2.61
2023-01-30T03:00:07.981Z,-2.61
2023-01-30T03:03:51.991Z,-2.62
2023-01-30T03:07:26.829Z,-2.59
2023-01-30T03:10:37.982Z,-2.56
2023-01-30T03:14:05.977Z,-2.59
2023-01-30T03:17:18.345Z,-2.58
2023-01-30T03:20:27.936Z,-2.62
2023-01-30T03:23:42.963Z,-2.70
2023-01-30T03:27:05.962Z,-2.61
2023-01-30T03:30:14.838Z,-2.62
2023-01-30T03:33:29.951Z,-2.60
2023-01-30T03:36:52.966Z,-2.59
2023-01-30T03:40:01.964Z,-2.60
2023-01-30T03:43:10.769Z,-2.63
2023-01-30T03:46:18.992Z,-2.64
2023-01-30T03:49:33.975Z,-2.65
2023-01-30T03:52:42.581Z,-2.69
2023-01-30T03:55:56.950Z,-2.74
2023-01-30T03:58:58.802Z,-2.67
2023-01-30T04:02:14.067Z,-2.69
2023-01-30T04:05:22.958Z,-2.64
2023-01-30T04:08:37.960Z,-2.63
2023-01-30T04:11:52.956Z,-2.66
2023-01-30T04:15:01.662Z,-2.66
2023-01-30T04:18:11.951Z,-2.72
2023-01-30T04:21:20.996Z,-2.70
2023-01-30T04:24:35.930Z,-2.70
2023-01-30T04:27:44.949Z,-2.69
2023-01-30T04:31:01.031Z,-2.71
2023-01-30T04:34:15.970Z,-2.67
2023-01-30T04:37:24.215Z,-2.72
2023-01-30T04:40:38.954Z,-2.72
2023-01-30T04:43:53.946Z,-2.75
2023-01-30T04:47:01.951Z,-2.76
2023-01-30T04:50:17.980Z,-2.78
2023-01-30T04:53:26.640Z,-2.78
2023-01-30T04:56:41.959Z,-2.78
2023-01-30T04:59:50.955Z,-2.85
2023-01-30T05:03:05.965Z,-2.88
2023-01-30T05:06:20.962Z,-2.93
2023-01-30T05:09:28.970Z,-2.99
2023-01-30T05:12:43.956Z,-3.08
2023-01-30T05:15:52.513Z,-3.19
2023-01-30T05:19:06.935Z,-3.22
2023-01-30T05:22:21.957Z,-3.25
2023-01-30T05:25:30.719Z,-3.30
2023-01-30T05:28:46.961Z,-3.33
2023-01-30T05:31:55.654Z,-3.31
2023-01-30T05:35:03.950Z,-3.35
2023-01-30T05:38:12.615Z,-3.34
2023-01-30T05:41:26.954Z,-3.36
2023-01-30T05:44:28.854Z,-3.39
2023-01-30T05:47:43.925Z,-3.45
2023-01-30T05:50:59.925Z,-3.47
2023-01-30T05:54:01.941Z,-3.45
2023-01-30T05:57:16.930Z,-3.52
2023-01-30T06:00:19.380Z,-3.48
2023-01-30T06:03:35.000Z,-3.43
2023-01-30T06:06:49.937Z,-3.40
2023-01-30T06:09:58.629Z,-3.36
2023-01-30T06:13:12.962Z,-3.31
2023-01-30T06:16:23.063Z,-3.29
2023-01-30T06:19:31.646Z,-3.27
2023-01-30T06:22:39.937Z,-3.28
2023-01-30T06:25:49.751Z,-3.26
2023-01-30T06:28:58.966Z,-3.21
2023-01-30T06:32:07.637Z,-3.14
2023-01-30T06:35:21.920Z,-3.07
2023-01-30T06:38:30.953Z,-3.01
2023-01-30T06:41:39.667Z,-2.93
2023-01-30T06:44:47.966Z,-2.83
2023-01-30T06:47:57.093Z,-2.80
2023-01-30T06:51:11.956Z,-2.74
2023-01-30T06:54:14.257Z,-2.64
2023-01-30T06:57:29.093Z,-2.53
2023-01-30T07:00:45.924Z,-2.46
2023-01-30T07:03:54.714Z,-2.27
2023-01-30T07:07:03.140Z,-2.16
2023-01-30T07:10:18.933Z,-2.00
2023-01-30T07:13:26.925Z,-1.93
2023-01-30T07:16:35.641Z,-1.79
2023-01-30T07:19:52.422Z,-1.64
2023-01-30T07:23:01.937Z,-1.57
2023-01-30T07:26:11.983Z,-1.50
2023-01-30T07:29:27.911Z,-1.55
2023-01-30T07:32:43.041Z,-1.45
2023-01-30T07:35:57.973Z,-1.39
2023-01-30T07:39:06.810Z,-1.30
2023-01-30T07:42:15.914Z,-1.26
2023-01-30T07:45:26.699Z,-1.13
2023-01-30T07:48:43.048Z,-1.09
2023-01-30T07:52:01.446Z,-1.05
2023-01-30T07:55:18.385Z,-0.96
2023-01-30T07:58:27.215Z,-1.02
2023-01-30T08:01:36.803Z,-1.00
2023-01-30T08:04:55.479Z,-0.94
2023-01-30T08:08:05.909Z,-0.85
2023-01-30T08:11:17.065Z,-0.93
2023-01-30T08:14:32.903Z,-0.86
2023-01-30T08:17:41.497Z,-0.96
2023-01-30T08:20:56.945Z,-0.73
2023-01-30T08:24:13.088Z,-0.61
2023-01-30T08:27:21.677Z,-0.65
2023-01-30T08:30:38.954Z,-0.67
2023-01-30T08:33:41.653Z,-0.65
2023-01-30T08:37:03.910Z,-0.59
2023-01-30T08:40:17.814Z,-0.53
2023-01-30T08:43:34.114Z,-0.36
2023-01-30T08:46:44.473Z,-0.20
2023-01-30T08:49:53.942Z,-0.05
2023-01-30T08:53:14.819Z,-0.02
2023-01-30T08:56:23.741Z,-0.15
2023-01-30T08:59:31.903Z,-0.21
2023-01-30T09:02:41.190Z,-0.27
2023-01-30T09:05:49.941Z,-0.31
2023-01-30T09:08:59.508Z,-0.27
2023-01-30T09:12:07.907Z,-0.30
2023-01-30T09:15:22.912Z,-0.37
2023-01-30T09:22:34.926Z,-0.21
2023-01-30T09:25:47.557Z,-0.07
2023-01-30T09:28:56.874Z,-0.01
2023-01-30T09:32:11.899Z,0.10
2023-01-30T09:35:14.273Z,0.32
2023-01-30T09:38:35.897Z,0.32
2023-01-30T09:42:05.618Z,0.34
2023-01-30T09:45:38.913Z,0.30
2023-01-30T09:49:31.987Z,0.19
2023-01-30T09:53:00.476Z,0.32
2023-01-30T09:56:14.930Z,0.36
2023-01-30T09:59:25.799Z,0.44
2023-01-30T10:02:43.955Z,0.35
2023-01-30T10:06:11.890Z,0.31
2023-01-30T10:09:27.032Z,0.32
2023-01-30T10:12:53.897Z,0.43
2023-01-30T10:16:22.941Z,0.50
2023-01-30T10:20:11.957Z,0.52
2023-01-30T10:23:45.278Z,0.66
2023-01-30T10:27:02.939Z,0.90
2023-01-30T10:30:23.119Z,1.15
2023-01-30T10:33:37.497Z,1.26
2023-01-30T10:37:06.561Z,1.29
2023-01-30T10:40:26.884Z,1.40
2023-01-30T10:43:48.926Z,1.39
2023-01-30T10:47:47.143Z,1.42
2023-01-30T10:50:59.426Z,1.47
2023-01-30T10:54:30.907Z,1.54
2023-01-30T10:58:10.886Z,1.57
2023-01-30T11:01:36.934Z,1.55
2023-01-30T11:05:06.904Z,1.59
2023-01-30T11:08:26.879Z,1.46
2023-01-30T11:11:48.694Z,1.53
2023-01-30T11:15:00.901Z,1.47
2023-01-30T11:19:16.633Z,1.54
2023-01-30T11:21:54.870Z,1.48
2023-01-30T11:25:18.244Z,1.48
2023-01-30T11:28:26.888Z,1.55
2023-01-30T11:31:48.000Z,1.48
2023-01-30T11:35:15.896Z,1.56
2023-01-30T11:38:27.757Z,1.57
2023-01-30T11:41:43.504Z,1.62
2023-01-30T11:45:17.097Z,1.77
2023-01-30T11:48:33.026Z,1.82
2023-01-30T11:52:06.961Z,1.93
2023-01-30T11:55:26.346Z,1.98
2023-01-30T11:58:40.897Z,1.93
2023-01-30T12:01:57.062Z,1.89
2023-01-30T12:05:11.878Z,1.63
2023-01-30T12:08:40.740Z,1.81
2023-01-30T12:11:50.645Z,1.78
2023-01-30T12:15:33.846Z,1.78
2023-01-30T12:19:23.879Z,1.81
2023-01-30T12:22:49.879Z,1.79
2023-01-30T12:26:11.260Z,1.76
2023-01-30T12:29:31.111Z,1.75
2023-01-30T12:32:41.891Z,1.75
2023-01-30T12:36:18.890Z,1.80
2023-01-30T12:39:49.452Z,1.78
2023-01-30T12:43:24.958Z,1.79
2023-01-30T12:46:58.887Z,1.85
2023-01-30T12:50:23.439Z,1.88
2023-01-30T12:53:55.879Z,1.90
2023-01-30T12:57:07.120Z,1.96
2023-01-30T13:00:19.111Z,2.04
2023-01-30T13:03:41.912Z,2.19
2023-01-30T13:06:50.594Z,2.13
2023-01-30T13:10:18.538Z,2.14
2023-01-30T13:18:16.863Z,2.04
2023-01-30T13:21:48.858Z,2.08
2023-01-30T13:25:13.011Z,2.04
2023-01-30T13:28:59.896Z,2.11
2023-01-30T13:32:24.910Z,2.21
2023-01-30T13:35:41.861Z,2.17
2023-01-30T13:39:01.425Z,2.10
2023-01-30T13:42:43.880Z,2.16
2023-01-30T13:45:54.902Z,2.21
2023-01-30T13:49:19.713Z,2.24
2023-01-30T13:52:38.887Z,2.26
2023-01-30T13:55:54.251Z,2.30
2023-01-30T13:59:14.852Z,2.37
2023-01-30T14:02:31.973Z,2.39
2023-01-30T14:05:56.000Z,2.42
2023-01-30T14:09:25.983Z,2.49
2023-01-30T14:12:41.791Z,2.33
2023-01-30T14:16:06.958Z,2.41
2023-01-30T14:19:44.543Z,2.37
2023-01-30T14:23:02.839Z,2.42
2023-01-30T14:26:04.902Z,2.42
2023-01-30T14:29:46.901Z,2.46
2023-01-30T14:32:55.718Z,2.45
2023-01-30T14:36:11.866Z,2.46
2023-01-30T14:39:44.863Z,2.45
2023-01-30T14:43:41.398Z,2.49
2023-01-30T14:46:57.184Z,2.42
2023-01-30T14:50:25.830Z,2.43
2023-01-30T14:53:34.220Z,2.41
2023-01-30T14:56:45.098Z,2.35
2023-01-30T15:00:17.018Z,2.24
2023-01-30T15:03:27.843Z,2.25
2023-01-30T15:06:43.845Z,2.06
2023-01-30T15:10:02.829Z,2.19
2023-01-30T15:13:35.972Z,2.19
2023-01-30T15:16:47.028Z,2.17
2023-01-30T15:20:21.074Z,2.17
2023-01-30T15:23:48.863Z,2.12
2023-01-30T15:27:17.851Z,2.10
2023-01-30T15:30:46.117Z,2.12
2023-01-30T15:33:59.876Z,2.09
2023-01-30T15:37:47.182Z,2.12
2023-01-30T15:40:55.887Z,2.11
2023-01-30T15:51:55.109Z,2.08
2023-01-30T15:55:10.832Z,2.00
2023-01-30T15:58:28.849Z,2.05
2023-01-30T16:01:38.244Z,2.00
2023-01-30T16:05:29.861Z,1.94
2023-01-30T16:08:35.418Z,1.84
2023-01-30T16:11:50.911Z,1.82
2023-01-30T16:15:17.160Z,1.82
2023-01-30T16:18:27.970Z,1.79
2023-01-30T16:21:39.817Z,1.76
2023-01-30T16:24:58.874Z,1.78
2023-01-30T16:28:07.862Z,1.77
2023-01-30T16:31:17.980Z,1.77
2023-01-30T16:34:37.377Z,1.79
2023-01-30T16:37:59.871Z,1.81
2023-01-30T16:41:37.836Z,1.78
2023-01-30T16:48:44.855Z,1.74
2023-01-30T16:52:17.816Z,1.67
2023-01-30T16:59:28.185Z,1.53
2023-01-30T17:07:06.172Z,1.47
2023-01-30T17:10:29.553Z,1.41
2023-01-30T17:13:43.940Z,1.32
2023-01-30T17:17:08.835Z,1.35
2023-01-30T17:24:28.918Z,1.34
2023-01-30T17:27:41.348Z,1.36
2023-01-30T17:31:09.007Z,1.28
2023-01-30T17:34:18.044Z,1.27
2023-01-30T17:37:33.545Z,1.31
2023-01-30T17:40:44.871Z,1.33
2023-01-30T17:43:54.559Z,1.32
2023-01-30T17:47:10.891Z,1.35
2023-01-30T17:50:20.409Z,1.40
2023-01-30T17:53:30.367Z,1.38
2023-01-30T17:56:49.240Z,1.47
2023-01-30T18:00:05.178Z,1.48
2023-01-30T18:03:14.328Z,1.49
2023-01-30T18:06:25.171Z,1.52
2023-01-30T18:09:40.838Z,1.55
2023-01-30T18:12:49.954Z,1.59
2023-01-30T18:16:06.273Z,1.58
2023-01-30T18:19:17.798Z,1.60
2023-01-30T18:22:29.311Z,1.63
2023-01-30T18:29:49.311Z,1.90
2023-01-30T18:32:58.579Z,2.05
2023-01-30T18:36:18.396Z,2.15
2023-01-30T18:39:36.126Z,2.31
2023-01-30T18:42:45.810Z,2.40
2023-01-30T18:45:55.250Z,2.41
2023-01-30T18:49:05.056Z,2.42
2023-01-30T18:52:21.255Z,2.48
2023-01-30T18:55:32.321Z,2.36
2023-01-30T18:58:42.016Z,2.51
2023-01-30T19:01:52.322Z,2.50
2023-01-30T19:05:01.950Z,2.47
2023-01-30T19:08:18.261Z,2.56
2023-01-30T19:11:23.820Z,2.59
2023-01-30T19:14:40.359Z,2.56
2023-01-30T19:17:51.000Z,2.62
2023-01-30T19:24:54.766Z,2.68
2023-01-30T19:28:11.663Z,2.68
2023-01-30T19:31:28.936Z,2.72
2023-01-30T19:34:38.760Z,2.66
2023-01-30T19:38:01.819Z,2.77
2023-01-30T19:41:55.313Z,2.79
2023-01-30T19:45:36.193Z,2.88
2023-01-30T19:48:54.218Z,2.95
2023-01-30T19:55:59.259Z,3.15
2023-01-30T19:59:15.336Z,3.11
2023-01-30T20:02:33.295Z,3.24
2023-01-30T20:05:50.247Z,3.24
2023-01-30T20:09:05.852Z,3.26
2023-01-30T20:12:23.236Z,3.30
2023-01-30T20:15:33.691Z,3.29
2023-01-30T20:18:51.833Z,3.29
2023-01-30T20:22:42.714Z,3.31
2023-01-30T20:34:18.901Z,3.27
2023-01-30T20:37:41.215Z,3.27
2023-01-30T20:40:51.266Z,3.27
2023-01-30T20:44:31.487Z,3.31
2023-01-30T20:47:48.208Z,3.28
2023-01-30T20:50:57.823Z,3.10
2023-01-30T20:54:14.084Z,3.20
2023-01-30T20:57:30.019Z,3.18
2023-01-30T21:00:46.619Z,3.18
2023-01-30T21:03:56.960Z,3.17
2023-01-30T21:07:14.308Z,3.21
2023-01-30T21:10:23.520Z,3.29
2023-01-30T21:13:32.047Z,3.39
2023-01-30T21:16:41.417Z,3.41
2023-01-30T21:19:56.819Z,3.37
2023-01-30T21:22:59.705Z,3.41
2023-01-30T21:26:18.175Z,3.36
2023-01-30T21:29:28.761Z,3.43
2023-01-30T21:32:36.830Z,3.42
2023-01-30T21:35:52.059Z,3.51
2023-01-30T21:39:07.883Z,3.59
2023-01-30T21:42:22.943Z,3.54
2023-01-30T21:45:37.892Z,3.40
2023-01-30T21:48:46.804Z,3.24
2023-01-30T21:52:01.823Z,3.29
2023-01-30T21:55:10.667Z,3.26
2023-01-30T21:58:26.810Z,3.19
2023-01-30T22:01:36.993Z,3.19
2023-01-30T22:04:51.789Z,3.10
2023-01-30T22:08:00.383Z,3.11
2023-01-30T22:11:17.781Z,3.09
2023-01-30T22:14:32.786Z,3.07
2023-01-30T22:17:47.782Z,3.05
2023-01-30T22:21:12.823Z,3.00
2023-01-30T22:24:21.469Z,3.05
2023-01-30T22:27:29.803Z,3.07
2023-01-30T22:30:44.854Z,3.09
2023-01-30T22:33:58.785Z,3.06
2023-01-30T22:37:20.833Z,3.12
2023-01-30T22:40:29.419Z,3.07
2023-01-30T22:43:38.270Z,3.01
2023-01-30T22:46:52.799Z,3.06
2023-01-30T22:50:01.477Z,2.99
2023-01-30T22:53:16.772Z,3.00
2023-01-30T22:56:28.645Z,3.13
2023-01-30T22:59:43.766Z,3.10
2023-01-30T23:02:58.805Z,3.06
2023-01-30T23:06:04.608Z,3.07
2023-01-30T23:09:25.784Z,3.09
2023-01-30T23:12:34.449Z,3.09
2023-01-30T23:15:48.797Z,3.15
2023-01-30T23:18:57.595Z,3.21
2023-01-30T23:22:05.778Z,3.36
2023-01-30T23:25:21.033Z,3.35
2023-01-30T23:28:35.815Z,3.37
2023-01-30T23:31:44.222Z,3.53
2023-01-30T23:34:52.381Z,3.60
2023-01-30T23:38:13.769Z,3.59
2023-01-30T23:41:18.308Z,3.72
2023-01-30T23:44:32.769Z,3.69
2023-01-30T23:47:35.293Z,3.82
2023-01-30T23:54:53.819Z,3.68
2023-01-30T23:58:02.416Z,3.49
